createdAt,value
2022-10-16T00:03:00.457Z,15.46
2022-10-16T00:06:05.848Z,15.43
2022-10-16T00:09:09.414Z,15.47
2022-10-16T00:12:12.601Z,15.26
2022-10-16T00:15:15.897Z,15.11
2022-10-16T00:18:19.104Z,15.06
2022-10-16T00:21:26.086Z,15.04
2022-10-16T00:24:29.300Z,15.09
2022-10-16T00:27:32.562Z,15.29
2022-10-16T00:30:35.895Z,15.21
2022-10-16T00:33:41.149Z,14.83
2022-10-16T00:36:45.767Z,14.82
2022-10-16T00:39:49.220Z,14.56
2022-10-16T00:42:52.407Z,14.64
2022-10-16T00:45:55.726Z,14.43
2022-10-16T00:49:04.459Z,14.48
2022-10-16T00:52:09.179Z,14.64
2022-10-16T00:55:12.602Z,14.58
2022-10-16T00:58:15.875Z,14.66
2022-10-16T01:01:19.103Z,14.42
2022-10-16T01:04:23.523Z,14.61
2022-10-16T01:07:42.785Z,14.48
2022-10-16T01:11:00.288Z,14.53
2022-10-16T01:14:11.314Z,14.78
2022-10-16T01:17:18.215Z,14.82
2022-10-16T01:20:28.401Z,14.82
2022-10-16T01:23:46.543Z,14.56
2022-10-16T01:27:14.779Z,14.30
2022-10-16T01:30:23.299Z,14.21
2022-10-16T01:33:32.500Z,14.41
2022-10-16T01:36:41.206Z,14.29
2022-10-16T01:39:48.068Z,14.43
2022-10-16T01:46:03.443Z,14.64
2022-10-16T01:49:08.616Z,14.76
2022-10-16T01:52:15.982Z,14.27
2022-10-16T01:55:24.789Z,14.42
2022-10-16T01:58:35.702Z,14.75
2022-10-16T02:01:42.737Z,14.24
2022-10-16T02:04:49.715Z,14.02
2022-10-16T02:07:52.916Z,14.26
2022-10-16T02:10:57.136Z,14.55
2022-10-16T02:14:05.980Z,14.68
2022-10-16T02:17:13.857Z,14.57
2022-10-16T02:20:17.451Z,14.69
2022-10-16T02:23:27.585Z,14.62
2022-10-16T02:26:36.313Z,14.71
2022-10-16T02:29:46.055Z,14.55
2022-10-16T02:32:51.194Z,14.58
2022-10-16T02:35:55.963Z,14.62
2022-10-16T02:39:01.221Z,14.69
2022-10-16T02:42:04.915Z,14.62
2022-10-16T02:45:11.803Z,14.49
2022-10-16T02:48:15.912Z,14.62
2022-10-16T02:51:19.194Z,14.39
2022-10-16T02:54:22.482Z,14.07
2022-10-16T02:57:25.922Z,13.84
2022-10-16T03:00:30.809Z,14.23
2022-10-16T03:03:34.019Z,14.10
2022-10-16T03:06:37.340Z,14.17
2022-10-16T03:09:40.543Z,14.11
2022-10-16T03:12:43.830Z,14.17
2022-10-16T03:15:48.963Z,13.70
2022-10-16T03:18:52.432Z,14.04
2022-10-16T03:21:55.639Z,14.37
2022-10-16T03:24:58.858Z,14.26
2022-10-16T03:28:02.126Z,14.53
2022-10-16T03:31:07.022Z,14.50
2022-10-16T03:34:10.264Z,14.42
2022-10-16T03:37:13.728Z,14.71
2022-10-16T03:40:17.521Z,14.59
2022-10-16T03:43:20.701Z,14.27
2022-10-16T03:46:25.358Z,14.46
2022-10-16T03:49:28.584Z,14.56
2022-10-16T03:52:33.177Z,14.61
2022-10-16T03:55:37.559Z,14.31
2022-10-16T03:58:40.762Z,14.27
2022-10-16T04:01:45.451Z,14.44
2022-10-16T04:04:48.641Z,14.45
2022-10-16T04:07:51.969Z,14.39
2022-10-16T04:10:55.190Z,14.09
2022-10-16T04:13:58.428Z,13.91
2022-10-16T04:17:03.128Z,13.91
2022-10-16T04:20:07.498Z,14.22
2022-10-16T04:23:10.840Z,14.21
2022-10-16T04:26:14.193Z,13.50
2022-10-16T04:29:17.343Z,13.87
2022-10-16T04:32:22.133Z,13.98
2022-10-16T04:35:25.346Z,14.22
2022-10-16T04:38:28.929Z,14.17
2022-10-16T04:41:32.295Z,13.98
2022-10-16T04:44:35.570Z,14.16
2022-10-16T04:47:40.232Z,13.98
2022-10-16T04:50:43.637Z,13.81
2022-10-16T04:53:46.863Z,13.59
2022-10-16T04:56:51.889Z,13.49
2022-10-16T04:59:56.203Z,13.27
2022-10-16T05:03:01.967Z,13.41
2022-10-16T05:06:08.008Z,13.41
2022-10-16T05:09:11.930Z,12.92
2022-10-16T05:12:15.149Z,13.09
2022-10-16T05:15:18.389Z,13.31
2022-10-16T05:18:23.067Z,13.48
2022-10-16T05:21:26.231Z,13.94
2022-10-16T05:24:29.511Z,14.25
2022-10-16T05:27:32.694Z,14.38
2022-10-16T05:30:35.947Z,14.55
2022-10-16T05:33:40.632Z,14.10
2022-10-16T05:36:46.288Z,14.11
2022-10-16T05:39:49.519Z,14.07
2022-10-16T05:42:57.309Z,14.23
2022-10-16T05:46:02.331Z,14.46
2022-10-16T05:49:07.030Z,14.80
2022-10-16T05:52:10.212Z,14.91
2022-10-16T05:55:13.368Z,15.16
2022-10-16T05:58:16.580Z,15.20
2022-10-16T06:01:21.908Z,15.61
2022-10-16T06:04:26.594Z,15.88
2022-10-16T06:07:29.977Z,15.94
2022-10-16T06:10:33.175Z,16.30
2022-10-16T06:13:36.606Z,16.43
2022-10-16T06:16:40.116Z,16.59
2022-10-16T06:19:44.706Z,16.72
2022-10-16T06:22:47.928Z,17.03
2022-10-16T06:25:51.217Z,17.38
2022-10-16T06:28:56.791Z,17.45
2022-10-16T06:32:00.021Z,17.39
2022-10-16T06:35:04.836Z,17.63
2022-10-16T06:38:08.076Z,17.83
2022-10-16T06:41:13.532Z,17.94
2022-10-16T06:44:16.768Z,18.14
2022-10-16T06:47:20.029Z,18.36
2022-10-16T06:50:24.733Z,18.62
2022-10-16T06:53:29.495Z,18.56
2022-10-16T06:56:33.674Z,18.49
2022-10-16T06:59:36.920Z,18.50
2022-10-16T07:02:42.493Z,18.81
2022-10-16T07:05:47.148Z,19.30
2022-10-16T07:08:50.929Z,19.49
2022-10-16T07:11:54.460Z,19.62
2022-10-16T07:14:57.749Z,19.41
2022-10-16T07:18:01.043Z,19.22
2022-10-16T07:21:11.200Z,19.61
2022-10-16T07:24:16.515Z,19.93
2022-10-16T07:27:19.782Z,19.95
2022-10-16T07:30:23.072Z,20.24
2022-10-16T07:33:26.383Z,20.27
2022-10-16T07:36:33.222Z,20.56
2022-10-16T07:39:36.508Z,20.71
2022-10-16T07:42:39.756Z,20.91
2022-10-16T07:45:50.466Z,21.12
2022-10-16T07:48:54.255Z,21.40
2022-10-16T07:51:58.904Z,21.70
2022-10-16T07:55:02.115Z,21.76
2022-10-16T07:58:05.762Z,21.70
2022-10-16T08:01:10.845Z,21.42
2022-10-16T08:04:14.059Z,20.69
2022-10-16T08:07:18.899Z,21.45
2022-10-16T08:10:26.640Z,21.79
2022-10-16T08:13:29.897Z,21.27
2022-10-16T08:16:33.387Z,21.76
2022-10-16T08:19:36.617Z,22.03
2022-10-16T08:22:41.655Z,22.35
2022-10-16T08:25:44.943Z,22.28
2022-10-16T08:28:48.249Z,22.63
2022-10-16T08:31:51.602Z,22.67
2022-10-16T08:34:54.851Z,22.52
2022-10-16T08:38:01.544Z,22.46
2022-10-16T08:41:39.350Z,22.89
2022-10-16T08:45:18.308Z,23.04
2022-10-16T08:48:27.732Z,23.36
2022-10-16T08:51:37.038Z,23.19
2022-10-16T08:54:48.033Z,23.72
2022-10-16T08:57:51.708Z,23.48
2022-10-16T09:00:57.351Z,23.30
2022-10-16T09:04:45.819Z,23.64
2022-10-16T09:07:57.506Z,23.46
2022-10-16T09:11:11.216Z,23.31
2022-10-16T09:14:37.353Z,23.36
2022-10-16T09:17:49.690Z,22.79
2022-10-16T09:20:59.417Z,23.29
2022-10-16T09:24:12.679Z,22.91
2022-10-16T09:27:17.726Z,22.21
2022-10-16T09:30:23.250Z,22.68
2022-10-16T09:33:38.147Z,23.24
2022-10-16T09:36:45.474Z,23.13
2022-10-16T09:39:54.785Z,23.72
2022-10-16T09:43:08.234Z,23.24
2022-10-16T09:46:39.074Z,23.51
2022-10-16T09:49:54.210Z,23.72
2022-10-16T09:53:08.230Z,24.33
2022-10-16T09:56:15.362Z,24.62
2022-10-16T09:59:22.307Z,24.21
2022-10-16T10:02:33.081Z,23.60
2022-10-16T10:05:36.590Z,23.33
2022-10-16T10:08:47.045Z,24.19
2022-10-16T10:11:56.269Z,24.38
2022-10-16T10:15:08.515Z,24.82
2022-10-16T10:18:21.076Z,24.29
2022-10-16T10:21:24.485Z,23.96
2022-10-16T10:24:27.928Z,23.09
2022-10-16T10:27:42.140Z,23.49
2022-10-16T10:30:56.353Z,23.12
2022-10-16T10:34:08.024Z,23.49
2022-10-16T10:37:26.348Z,24.03
2022-10-16T10:40:42.080Z,24.18
2022-10-16T10:43:57.925Z,23.57
2022-10-16T10:47:11.627Z,24.28
2022-10-16T10:50:24.081Z,23.82
2022-10-16T10:53:38.751Z,24.13
2022-10-16T10:56:49.602Z,23.59
2022-10-16T11:00:10.555Z,23.69
2022-10-16T11:03:32.698Z,24.18
2022-10-16T11:06:39.359Z,24.05
2022-10-16T11:09:48.044Z,23.30
2022-10-16T11:12:55.136Z,23.72
2022-10-16T11:16:01.447Z,23.49
2022-10-16T11:19:15.313Z,23.93
2022-10-16T11:22:22.962Z,23.78
2022-10-16T11:25:34.075Z,23.56
2022-10-16T11:28:44.252Z,23.87
2022-10-16T11:31:52.173Z,24.06
2022-10-16T11:35:02.276Z,23.55
2022-10-16T11:38:12.525Z,24.39
2022-10-16T11:41:24.698Z,23.95
2022-10-16T11:44:44.707Z,24.37
2022-10-16T11:47:59.229Z,23.89
2022-10-16T11:51:11.755Z,23.78
2022-10-16T11:54:23.692Z,23.66
2022-10-16T11:57:30.322Z,23.44
2022-10-16T12:00:41.038Z,23.80
2022-10-16T12:03:51.357Z,23.86
2022-10-16T12:07:02.125Z,24.08
2022-10-16T12:10:13.219Z,24.47
2022-10-16T12:13:33.810Z,24.81
2022-10-16T12:16:40.050Z,24.57
2022-10-16T12:19:43.316Z,24.08
2022-10-16T12:22:55.174Z,23.57
2022-10-16T12:26:00.676Z,23.85
2022-10-16T12:29:16.753Z,23.94
2022-10-16T12:32:47.354Z,24.31
2022-10-16T12:35:52.166Z,24.07
2022-10-16T12:38:57.176Z,24.67
2022-10-16T12:42:05.738Z,24.29
2022-10-16T12:45:28.150Z,24.47
2022-10-16T12:48:42.332Z,24.58
2022-10-16T12:51:52.680Z,24.25
2022-10-16T12:55:01.961Z,24.17
2022-10-16T12:58:17.317Z,24.30
2022-10-16T13:01:40.782Z,24.17
2022-10-16T13:05:11.161Z,24.02
2022-10-16T13:08:39.954Z,23.65
2022-10-16T13:12:01.518Z,23.90
2022-10-16T13:15:19.410Z,23.46
2022-10-16T13:18:29.053Z,23.84
2022-10-16T13:21:41.834Z,23.98
2022-10-16T13:24:55.888Z,24.05
2022-10-16T13:28:03.147Z,23.95
2022-10-16T13:31:07.133Z,24.05
2022-10-16T13:34:16.751Z,23.55
2022-10-16T13:37:21.845Z,22.95
2022-10-16T13:40:27.075Z,23.23
2022-10-16T13:43:36.626Z,23.60
2022-10-16T13:46:39.929Z,23.34
2022-10-16T13:49:43.188Z,23.02
2022-10-16T13:52:46.886Z,23.17
2022-10-16T13:55:50.144Z,23.06
2022-10-16T13:59:03.262Z,22.44
2022-10-16T14:02:19.580Z,22.68
2022-10-16T14:05:22.880Z,23.09
2022-10-16T14:08:28.003Z,23.31
2022-10-16T14:11:31.679Z,23.41
2022-10-16T14:14:42.276Z,23.18
2022-10-16T14:17:50.703Z,23.05
2022-10-16T14:20:55.702Z,22.47
2022-10-16T14:24:00.789Z,22.73
2022-10-16T14:27:04.919Z,22.28
2022-10-16T14:30:17.904Z,21.90
2022-10-16T14:33:24.975Z,21.74
2022-10-16T14:36:30.386Z,21.80
2022-10-16T14:39:33.798Z,21.91
2022-10-16T14:42:37.132Z,21.98
2022-10-16T14:45:44.076Z,21.97
2022-10-16T14:48:51.078Z,22.02
2022-10-16T14:51:54.409Z,21.62
2022-10-16T14:54:57.659Z,21.59
2022-10-16T14:58:01.142Z,21.40
2022-10-16T15:01:08.002Z,21.10
2022-10-16T15:04:14.649Z,21.14
2022-10-16T15:07:18.115Z,21.07
2022-10-16T15:10:24.074Z,21.13
2022-10-16T15:13:27.445Z,21.10
2022-10-16T15:16:32.508Z,21.05
2022-10-16T15:19:35.747Z,20.92
2022-10-16T15:22:38.936Z,20.71
2022-10-16T15:25:45.525Z,20.60
2022-10-16T15:28:48.812Z,20.46
2022-10-16T15:31:53.517Z,20.44
2022-10-16T15:34:57.519Z,20.40
2022-10-16T15:38:06.227Z,20.49
2022-10-16T15:41:12.917Z,20.45
2022-10-16T15:44:21.275Z,20.55
2022-10-16T15:47:27.826Z,20.52
2022-10-16T15:50:35.597Z,20.47
2022-10-16T15:53:48.459Z,20.36
2022-10-16T15:56:51.740Z,20.33
2022-10-16T15:59:57.724Z,20.35
2022-10-16T16:03:00.956Z,20.18
2022-10-16T16:06:07.272Z,20.13
2022-10-16T16:09:11.899Z,20.22
2022-10-16T16:12:15.169Z,20.21
2022-10-16T16:15:18.476Z,20.07
2022-10-16T16:18:21.941Z,19.92
2022-10-16T16:21:25.169Z,19.95
2022-10-16T16:24:29.855Z,19.92
2022-10-16T16:27:34.635Z,19.70
2022-10-16T16:30:37.925Z,19.67
2022-10-16T16:33:41.131Z,19.83
2022-10-16T16:36:44.348Z,19.62
2022-10-16T16:39:48.956Z,19.64
2022-10-16T16:42:52.176Z,19.26
2022-10-16T16:45:56.173Z,19.33
2022-10-16T16:49:00.406Z,19.34
2022-10-16T16:52:03.612Z,19.53
2022-10-16T16:55:09.093Z,19.41
2022-10-16T16:58:12.471Z,19.38
2022-10-16T17:01:19.935Z,19.36
2022-10-16T17:04:23.760Z,19.48
2022-10-16T17:07:28.772Z,19.37
2022-10-16T17:10:33.627Z,19.39
2022-10-16T17:13:38.460Z,19.44
2022-10-16T17:16:44.733Z,19.31
2022-10-16T17:19:48.065Z,19.36
2022-10-16T17:22:52.043Z,19.34
2022-10-16T17:25:56.916Z,19.32
2022-10-16T17:29:02.416Z,19.30
2022-10-16T17:32:06.103Z,19.16
2022-10-16T17:35:09.997Z,19.01
2022-10-16T17:38:15.263Z,18.87
2022-10-16T17:41:21.734Z,18.96
2022-10-16T17:44:24.927Z,18.74
2022-10-16T17:47:29.262Z,18.69
2022-10-16T17:50:32.504Z,18.43
2022-10-16T17:53:36.187Z,18.05
2022-10-16T17:56:43.712Z,17.50
2022-10-16T17:59:46.935Z,17.26
2022-10-16T18:02:51.348Z,17.39
2022-10-16T18:05:54.827Z,17.26
2022-10-16T18:08:59.163Z,17.36
2022-10-16T18:12:03.809Z,17.71
2022-10-16T18:15:08.462Z,17.94
2022-10-16T18:18:11.836Z,17.91
2022-10-16T18:21:17.368Z,17.92
2022-10-16T18:24:21.006Z,17.32
2022-10-16T18:27:26.144Z,17.47
2022-10-16T18:30:29.966Z,17.76
2022-10-16T18:33:34.385Z,17.84
2022-10-16T18:36:37.796Z,17.69
2022-10-16T18:39:41.115Z,17.71
2022-10-16T18:42:45.691Z,17.60
2022-10-16T18:45:57.456Z,17.67
2022-10-16T18:49:01.862Z,17.25
2022-10-16T18:52:05.779Z,17.09
2022-10-16T18:55:10.919Z,17.21
2022-10-16T18:58:15.576Z,16.97
2022-10-16T19:01:21.741Z,17.06
2022-10-16T19:04:25.135Z,17.10
2022-10-16T19:07:28.725Z,17.06
2022-10-16T19:10:32.171Z,17.22
2022-10-16T19:13:36.903Z,17.36
2022-10-16T19:16:42.887Z,17.36
2022-10-16T19:19:46.193Z,17.48
2022-10-16T19:22:54.406Z,17.33
2022-10-16T19:25:57.633Z,17.28
2022-10-16T19:29:05.818Z,17.10
2022-10-16T19:32:09.065Z,17.31
2022-10-16T19:35:12.276Z,17.44
2022-10-16T19:38:15.604Z,17.29
2022-10-16T19:41:20.305Z,17.34
2022-10-16T19:44:26.507Z,17.22
2022-10-16T19:47:29.695Z,17.27
2022-10-16T19:50:32.908Z,16.93
2022-10-16T19:53:36.121Z,17.15
2022-10-16T19:56:39.480Z,17.32
2022-10-16T19:59:45.671Z,17.29
2022-10-16T20:02:49.198Z,17.04
2022-10-16T20:05:53.479Z,16.95
2022-10-16T20:08:58.331Z,16.52
2022-10-16T20:12:01.576Z,16.54
2022-10-16T20:15:06.986Z,15.99
2022-10-16T20:18:10.279Z,16.07
2022-10-16T20:21:15.324Z,16.43
2022-10-16T20:24:19.094Z,16.52
2022-10-16T20:27:22.281Z,16.26
2022-10-16T20:30:26.924Z,16.23
2022-10-16T20:33:30.143Z,16.64
2022-10-16T20:36:34.069Z,16.89
2022-10-16T20:39:37.330Z,16.77
2022-10-16T20:42:40.644Z,16.66
2022-10-16T20:45:46.186Z,16.60
2022-10-16T20:48:49.546Z,16.36
2022-10-16T20:51:52.724Z,16.15
2022-10-16T20:54:55.985Z,16.28
2022-10-16T20:57:59.234Z,16.42
2022-10-16T21:01:08.224Z,16.25
2022-10-16T21:04:11.549Z,16.20
2022-10-16T21:07:14.817Z,16.42
2022-10-16T21:10:19.204Z,16.14
2022-10-16T21:13:24.220Z,16.24
2022-10-16T21:16:31.064Z,15.90
2022-10-16T21:19:34.308Z,16.21
2022-10-16T21:22:37.596Z,16.45
2022-10-16T21:25:40.851Z,16.09
2022-10-16T21:28:44.081Z,16.21
2022-10-16T21:31:48.892Z,15.90
2022-10-16T21:34:52.151Z,15.88
2022-10-16T21:37:55.453Z,15.82
2022-10-16T21:40:58.694Z,15.68
2022-10-16T21:44:02.674Z,15.93
2022-10-16T21:47:07.316Z,16.09
2022-10-16T21:50:11.034Z,16.17
2022-10-16T21:53:14.248Z,16.30
2022-10-16T21:56:18.907Z,16.31
2022-10-16T21:59:22.278Z,16.38
2022-10-16T22:02:26.987Z,16.26
2022-10-16T22:05:30.140Z,16.10
2022-10-16T22:08:34.395Z,16.23
2022-10-16T22:11:39.441Z,16.13
2022-10-16T22:14:42.685Z,16.06
2022-10-16T22:17:47.304Z,15.96
2022-10-16T22:20:50.603Z,16.08
2022-10-16T22:23:53.795Z,15.98
2022-10-16T22:26:57.088Z,15.74
2022-10-16T22:30:00.282Z,15.25
2022-10-16T22:33:05.626Z,15.52
2022-10-16T22:36:12.516Z,15.32
2022-10-16T22:39:15.700Z,15.54
2022-10-16T22:42:19.027Z,15.55
2022-10-16T22:45:22.199Z,15.14
2022-10-16T22:48:26.856Z,15.37
2022-10-16T22:51:30.226Z,15.39
2022-10-16T22:54:33.460Z,15.42
2022-10-16T22:57:36.703Z,15.15
2022-10-16T23:00:42.581Z,15.32
2022-10-16T23:03:47.390Z,15.17
2022-10-16T23:06:50.593Z,15.30
2022-10-16T23:09:54.802Z,15.24
2022-10-16T23:12:58.076Z,15.12
2022-10-16T23:16:01.317Z,14.43
2022-10-16T23:19:06.042Z,14.71
2022-10-16T23:22:09.258Z,14.65
2022-10-16T23:25:12.507Z,14.73
2022-10-16T23:31:24.524Z,14.56
2022-10-16T23:34:29.136Z,14.46
2022-10-16T23:37:32.372Z,14.44
2022-10-16T23:40:35.692Z,14.54
2022-10-16T23:43:39.259Z,14.13
2022-10-16T23:46:42.504Z,14.47
2022-10-16T23:49:47.158Z,14.33
2022-10-16T23:52:50.442Z,14.41
2022-10-16T23:55:53.714Z,14.36
2022-10-16T23:58:56.900Z,14.59
